Terminal Aerodrome Forecast
Issued by NWS

Home | Current Version | Previous Version | Text Only | Print | Product List | Glossary On
Versions: 1 2 3 4 5 6 7 8 9 10 11 12 13 14 15 16 17 18 19 20 21 22 23 24 25 26
000
FTUS46 KLOX 240900 AAA
TAFLAX
TAF AMD
KLAX 240906Z 2409/2512 VRB03KT 3SM BR SCT001
     FM241500 VRB03KT P6SM SKC
     FM242200 25010KT P6SM SKC
     FM250300 VRB03KT P6SM SKC
     FM250900 VRB03KT 2SM BR BKN003=

USA.gov is the U.S. government's official web portal to all federal, state and local government web resources and services.